Terminal Aerodrome Forecast
Issued by NWS Billings, MT

Home | Current Version | Previous Version | Text Only | Print | Product List | Glossary On
Versions: 1 2 3 4 5 6 7 8 9 10 11 12 13
000
FTUS45 KBYZ 220527
TAFMLS
TAF
KMLS 220527Z 2206/2306 16010KT P6SM BKN100
     FM220700 34011KT P6SM SCT150
     FM221100 VRB06KT P6SM BKN100
     FM221900 04010KT P6SM SCT100
     FM230500 05015KT P6SM VCSH BKN060 OVC100=

USA.gov is the U.S. government's official web portal to all federal, state and local government web resources and services.